Arctic Fury — WDE9335 — position and weather

sailwx.info

Track history (hours):
 
Tides and Currents Weather Stations Pressure Air Temp Water Temp Dewpoint Dewpoint Depression Visibility Wind Speed Wind Dir Waves Ship Positions

Arctic Fury

Owner: Fury Group Inc, Seattle, WA. More information available from US FCC via Universal Licensing System and Coast Guard Vessel Documentation Center.

Last reported at 2017-Oct-15 21:29 UTC. Time now 2017-Oct-22 12:18 UTC.
Position N 43°37' W 124°51'.

Length 43 m; draft 5 m.

Type: Fishing. MMSI: 366468000.

Date/timePositionNaut miles runAvg speedWind from/ knotsBaromVisibWave heightAir tempDewpointWater temp
2017-Oct-15 21:29N 43°37' W 124°51'510.5
2017-Oct-15 21:00N 43°42' W 124°50'18 0.9
2017-Oct-14 23:56N 43°59' W 124°59'2 3.4
2017-Oct-14 23:21N 44°01' W 124°59'2 2.6
2017-Oct-14 22:25N 43°59' W 124°59'1 2.9
2017-Oct-14 22:00N 43°57' W 124°59'2 3.1
2017-Oct-14 21:21N 43°56' W 124°58'5 5.9
2017-Oct-14 20:32N 43°58' W 125°04'0 5.4
2017-Oct-14 20:30N 43°58' W 125°04'1 2.6
2017-Oct-14 20:00N 43°57' W 125°02'2 3.6
2017-Oct-14 19:30N 43°56' W 125°00'2 3.1
2017-Oct-14 19:00N 43°56' W 124°58'2 2.7
2017-Oct-14 18:23N 43°57' W 124°58'2 3.2
2017-Oct-14 17:38N 43°60' W 124°58'0 3.3
2017-Oct-14 17:30N 44°00' W 124°58'  
2017-Oct-10 02:12N 44°15' W 124°57'1 4.2
2017-Oct-10 01:59N 44°16' W 124°57'7 2.2
2017-Oct-09 22:32N 44°09' W 125°00'0 4.8
2017-Oct-09 22:29N 44°10' W 125°00'2 4.6
2017-Oct-09 22:00N 44°12' W 124°60'0 0.9
2017-Oct-09 21:30N 44°12' W 125°00'1 2.8
2017-Oct-09 21:00N 44°13' W 124°59'2 3.5
2017-Oct-09 20:30N 44°14' W 124°58'0 0.4
2017-Oct-09 20:00N 44°15' W 124°58'1 2.0
2017-Oct-09 19:30N 44°14' W 124°59'2 4.0
2017-Oct-09 19:00N 44°13' W 124°59'4 7.7
2017-Oct-09 18:30N 44°09' W 124°58'  
2017-Oct-07 03:42N 43°35' W 124°39'1 0.5
2017-Oct-07 02:30N 43°36' W 124°39'0 0.6
2017-Oct-07 02:00N 43°36' W 124°39'0 0.6
2017-Oct-07 01:26N 43°37' W 124°39'0 0.7
2017-Oct-07 01:00N 43°37' W 124°39'2 4.7
2017-Oct-07 00:30N 43°35' W 124°37'5 9.5
2017-Oct-07 00:01N 43°31' W 124°33'510.5
2017-Oct-06 23:30N 43°27' W 124°29'610.2
2017-Oct-06 22:55N 43°22' W 124°23'8 1.9
2017-Oct-06 18:47N 43°29' W 124°29'311.1
2017-Oct-06 18:30N 43°32' W 124°31'611.1
2017-Oct-06 18:00N 43°36' W 124°35'611.4
2017-Oct-06 17:29N 43°42' W 124°39'1 2.6
2017-Oct-06 17:00N 43°43' W 124°40'1 2.9
2017-Oct-06 16:30N 43°44' W 124°38'2 2.4
2017-Oct-06 15:52N 43°45' W 124°39'1 2.9
2017-Oct-06 15:30N 43°46' W 124°39'2 3.0
2017-Oct-06 14:41N 43°49' W 124°40'1 3.0
2017-Oct-06 14:28N 43°49' W 124°40'1 2.9
2017-Oct-06 14:00N 43°50' W 124°42'2 3.1
2017-Oct-06 13:30N 43°50' W 124°44'1 2.1
2017-Oct-06 13:00N 43°50' W 124°45'2 4.9
2017-Oct-06 12:30N 43°50' W 124°49'2 2.7
2017-Oct-06 11:38N 43°48' W 124°48'0 0.8
2017-Oct-06 11:30N 43°48' W 124°48'0 0.7
2017-Oct-06 11:00N 43°48' W 124°48'0 0.8
2017-Oct-06 10:30N 43°48' W 124°48'0 0.7
2017-Oct-06 10:00N 43°49' W 124°48'0 0.7
2017-Oct-06 09:30N 43°49' W 124°48'0 0.6
2017-Oct-06 09:00N 43°49' W 124°48'0 0.6
2017-Oct-06 08:30N 43°50' W 124°48'0 0.6
2017-Oct-06 08:00N 43°50' W 124°48'2 4.6
2017-Oct-06 07:30N 43°48' W 124°48'3 5.5
2017-Oct-06 07:00N 43°45' W 124°46'2 4.2
2017-Oct-06 06:30N 43°44' W 124°44'2 3.7
2017-Oct-06 06:00N 43°46' W 124°43'1 2.7
2017-Oct-06 05:30N 43°47' W 124°43'1 2.9
2017-Oct-06 05:00N 43°48' W 124°43'1 2.9
2017-Oct-06 04:30N 43°49' W 124°41'2 3.2
2017-Oct-06 04:00N 43°48' W 124°39'2 3.2
2017-Oct-06 03:30N 43°47' W 124°39'2 3.2
2017-Oct-06 03:00N 43°45' W 124°39'2 3.2
2017-Oct-06 02:30N 43°44' W 124°39'2 3.2
2017-Oct-06 02:00N 43°42' W 124°39'2 3.2
2017-Oct-06 01:30N 43°40' W 124°39'2 2.6
2017-Oct-06 00:46N 43°39' W 124°40'2 5.4
2017-Oct-06 00:28N 43°39' W 124°38'1 2.2
2017-Oct-06 00:00N 43°40' W 124°38'1 2.8
2017-Oct-05 23:30N 43°41' W 124°40'2 3.2
2017-Oct-05 22:58N 43°42' W 124°39'2 3.2
2017-Oct-05 22:27N 43°44' W 124°39'2 3.2
2017-Oct-05 21:57N 43°46' W 124°39'  
Track history (hours):
 
Tides and Currents Weather Stations Pressure Air Temp Water Temp Dewpoint Dewpoint Depression Visibility Wind Speed Wind Dir Waves Ship Positions

Arctic Fury

Owner: Fury Group Inc, Seattle, WA. More information available from US FCC via Universal Licensing System and Coast Guard Vessel Documentation Center.

Last reported at 2017-Oct-15 21:29 UTC. Time now 2017-Oct-22 12:18 UTC.
Position N 43°37' W 124°51'.

Length 43 m; draft 5 m.

Type: Fishing. MMSI: 366468000.

Date/timePositionNaut miles runAvg speedWind from/ knotsBaromVisibWave heightAir tempDewpointWater temp
2017-Oct-15 21:29N 43°37' W 124°51'510.5
2017-Oct-15 21:00N 43°42' W 124°50'18 0.9
2017-Oct-14 23:56N 43°59' W 124°59'2 3.4
2017-Oct-14 23:21N 44°01' W 124°59'2 2.6
2017-Oct-14 22:25N 43°59' W 124°59'1 2.9
2017-Oct-14 22:00N 43°57' W 124°59'2 3.1
2017-Oct-14 21:21N 43°56' W 124°58'5 5.9
2017-Oct-14 20:32N 43°58' W 125°04'0 5.4
2017-Oct-14 20:30N 43°58' W 125°04'1 2.6
2017-Oct-14 20:00N 43°57' W 125°02'2 3.6
2017-Oct-14 19:30N 43°56' W 125°00'2 3.1
2017-Oct-14 19:00N 43°56' W 124°58'2 2.7
2017-Oct-14 18:23N 43°57' W 124°58'2 3.2
2017-Oct-14 17:38N 43°60' W 124°58'0 3.3
2017-Oct-14 17:30N 44°00' W 124°58'  
2017-Oct-10 02:12N 44°15' W 124°57'1 4.2
2017-Oct-10 01:59N 44°16' W 124°57'7 2.2
2017-Oct-09 22:32N 44°09' W 125°00'0 4.8
2017-Oct-09 22:29N 44°10' W 125°00'2 4.6
2017-Oct-09 22:00N 44°12' W 124°60'0 0.9
2017-Oct-09 21:30N 44°12' W 125°00'1 2.8
2017-Oct-09 21:00N 44°13' W 124°59'2 3.5
2017-Oct-09 20:30N 44°14' W 124°58'0 0.4
2017-Oct-09 20:00N 44°15' W 124°58'1 2.0
2017-Oct-09 19:30N 44°14' W 124°59'2 4.0
2017-Oct-09 19:00N 44°13' W 124°59'4 7.7
2017-Oct-09 18:30N 44°09' W 124°58'  
2017-Oct-07 03:42N 43°35' W 124°39'1 0.5
2017-Oct-07 02:30N 43°36' W 124°39'0 0.6
2017-Oct-07 02:00N 43°36' W 124°39'0 0.6
2017-Oct-07 01:26N 43°37' W 124°39'0 0.7
2017-Oct-07 01:00N 43°37' W 124°39'2 4.7
2017-Oct-07 00:30N 43°35' W 124°37'5 9.5
2017-Oct-07 00:01N 43°31' W 124°33'510.5
2017-Oct-06 23:30N 43°27' W 124°29'610.2
2017-Oct-06 22:55N 43°22' W 124°23'8 1.9
2017-Oct-06 18:47N 43°29' W 124°29'311.1
2017-Oct-06 18:30N 43°32' W 124°31'611.1
2017-Oct-06 18:00N 43°36' W 124°35'611.4
2017-Oct-06 17:29N 43°42' W 124°39'1 2.6
2017-Oct-06 17:00N 43°43' W 124°40'1 2.9
2017-Oct-06 16:30N 43°44' W 124°38'2 2.4
2017-Oct-06 15:52N 43°45' W 124°39'1 2.9
2017-Oct-06 15:30N 43°46' W 124°39'2 3.0
2017-Oct-06 14:41N 43°49' W 124°40'1 3.0
2017-Oct-06 14:28N 43°49' W 124°40'1 2.9
2017-Oct-06 14:00N 43°50' W 124°42'2 3.1
2017-Oct-06 13:30N 43°50' W 124°44'1 2.1
2017-Oct-06 13:00N 43°50' W 124°45'2 4.9
2017-Oct-06 12:30N 43°50' W 124°49'2 2.7
2017-Oct-06 11:38N 43°48' W 124°48'0 0.8
2017-Oct-06 11:30N 43°48' W 124°48'0 0.7
2017-Oct-06 11:00N 43°48' W 124°48'0 0.8
2017-Oct-06 10:30N 43°48' W 124°48'0 0.7
2017-Oct-06 10:00N 43°49' W 124°48'0 0.7
2017-Oct-06 09:30N 43°49' W 124°48'0 0.6
2017-Oct-06 09:00N 43°49' W 124°48'0 0.6
2017-Oct-06 08:30N 43°50' W 124°48'0 0.6
2017-Oct-06 08:00N 43°50' W 124°48'2 4.6
2017-Oct-06 07:30N 43°48' W 124°48'3 5.5
2017-Oct-06 07:00N 43°45' W 124°46'2 4.2
2017-Oct-06 06:30N 43°44' W 124°44'2 3.7
2017-Oct-06 06:00N 43°46' W 124°43'1 2.7
2017-Oct-06 05:30N 43°47' W 124°43'1 2.9
2017-Oct-06 05:00N 43°48' W 124°43'1 2.9
2017-Oct-06 04:30N 43°49' W 124°41'2 3.2
2017-Oct-06 04:00N 43°48' W 124°39'2 3.2
2017-Oct-06 03:30N 43°47' W 124°39'2 3.2
2017-Oct-06 03:00N 43°45' W 124°39'2 3.2
2017-Oct-06 02:30N 43°44' W 124°39'2 3.2
2017-Oct-06 02:00N 43°42' W 124°39'2 3.2
2017-Oct-06 01:30N 43°40' W 124°39'2 2.6
2017-Oct-06 00:46N 43°39' W 124°40'2 5.4
2017-Oct-06 00:28N 43°39' W 124°38'1 2.2
2017-Oct-06 00:00N 43°40' W 124°38'1 2.8
2017-Oct-05 23:30N 43°41' W 124°40'2 3.2
2017-Oct-05 22:58N 43°42' W 124°39'2 3.2
2017-Oct-05 22:27N 43°44' W 124°39'2 3.2
2017-Oct-05 21:57N 43°46' W 124°39'  

Dump ship's entire track history